Time;durP1;ratioP1;P1;durP2;ratioP2;P2;SDS_P1;SDS_P2;PMS_P1;PMS_P2;Temp;Humidity;BMP_temperature;BMP_pressure;BME280_temperature;BME280_humidity;BME280_pressure;Samples;Min_cycle;Max_cycle;Signal;HPM_P1;HPM_P2
2022/05/14 00:01:21;;;;;;;20.23;4.85;;;14.40;99.90;;;;;;5096235;28;20082;-60
2022/05/14 00:03:50;;;;;;;24.33;5.63;;;12.10;99.90;;;;;;5095931;28;20536;-59
2022/05/14 00:06:19;;;;;;;19.85;4.80;;;12.30;99.90;;;;;;5095512;28;20366;-60
2022/05/14 00:08:46;;;;;;;23.52;4.35;;;12.10;99.90;;;;;;5096578;28;20059;-60
2022/05/14 00:13:57;;;;;;;22.10;5.32;;;12.30;99.90;;;;;;5095424;28;20096;-60
2022/05/14 00:16:24;;;;;;;25.35;5.82;;;14.00;99.90;;;;;;5096559;27;20075;-61
2022/05/14 00:18:52;;;;;;;26.80;5.57;;;12.20;99.90;;;;;;5095251;28;20058;-60
2022/05/14 00:21:19;;;;;;;29.08;5.20;;;12.20;99.90;;;;;;5094345;28;20051;-60
2022/05/14 00:23:45;;;;;;;22.52;5.47;;;12.20;99.90;;;;;;5094468;28;20032;-60
2022/05/14 00:26:11;;;;;;;26.67;5.90;;;11.90;99.90;;;;;;5094120;28;20050;-60
2022/05/14 00:28:37;;;;;;;24.70;5.28;;;13.10;99.90;;;;;;5094936;28;20071;-60
2022/05/14 00:31:03;;;;;;;24.50;5.35;;;12.10;99.90;;;;;;5095041;28;20040;-60
2022/05/14 00:33:29;;;;;;;23.20;5.63;;;12.10;99.90;;;;;;5094119;28;20736;-60
2022/05/14 00:35:57;;;;;;;21.35;5.25;;;12.00;99.90;;;;;;5094768;28;20602;-60
2022/05/14 00:38:23;;;;;;;25.38;5.43;;;13.10;99.90;;;;;;5095683;28;20067;-60
2022/05/14 00:40:57;;;;;;;21.70;5.10;;;12.00;99.90;;;;;;5094732;28;20189;-59
2022/05/14 00:43:25;;;;;;;23.30;5.57;;;12.60;99.90;;;;;;5095182;28;20035;-60
2022/05/14 00:46:06;;;;;;;23.08;6.28;;;11.90;99.90;;;;;;5094976;28;20040;-59
2022/05/14 00:48:37;;;;;;;21.88;5.53;;;12.30;99.90;;;;;;5094503;28;20047;-59
2022/05/14 00:51:03;;;;;;;21.30;5.88;;;12.70;99.90;;;;;;5094837;28;20534;-59
2022/05/14 00:53:44;;;;;;;20.38;5.50;;;11.90;99.90;;;;;;5092964;28;20044;-59
2022/05/14 00:56:15;;;;;;;24.67;5.60;;;13.10;99.90;;;;;;5093135;28;20055;-59
2022/05/14 00:58:47;;;;;;;32.47;6.57;;;13.00;99.90;;;;;;5090836;28;20083;-60
2022/05/14 01:01:13;;;;;;;25.60;6.38;;;12.00;99.90;;;;;;5091005;28;20036;-60
2022/05/14 01:03:39;;;;;;;24.67;5.93;;;12.80;99.90;;;;;;5094614;28;20611;-60
2022/05/14 01:06:08;;;;;;;27.63;6.50;;;12.70;99.90;;;;;;5094374;28;20124;-60
2022/05/14 01:08:34;;;;;;;29.55;7.22;;;14.00;99.90;;;;;;5094383;28;21085;-60
2022/05/14 01:11:00;;;;;;;30.30;6.60;;;12.10;99.90;;;;;;5092905;28;20119;-60
2022/05/14 01:13:28;;;;;;;30.92;7.15;;;12.10;99.90;;;;;;5094560;27;20126;-60
2022/05/14 01:15:59;;;;;;;32.15;6.93;;;11.90;99.90;;;;;;5095512;28;20044;-60
2022/05/14 01:18:29;;;;;;;31.17;6.85;;;13.40;99.90;;;;;;5093644;28;20100;-60
2022/05/14 01:21:03;;;;;;;30.50;7.13;;;11.90;99.90;;;;;;5095080;28;20534;-60
2022/05/14 01:26:29;;;;;;;27.20;7.28;;;11.70;99.90;;;;;;5094387;28;20404;-60
2022/05/14 01:29:08;;;;;;;34.97;7.53;;;11.70;99.90;;;;;;5095570;28;20035;-60
2022/05/14 01:31:36;;;;;;;27.58;6.97;;;11.90;99.90;;;;;;5094440;28;20103;-60
2022/05/14 01:34:06;;;;;;;29.15;6.57;;;11.60;99.90;;;;;;5093926;28;20044;-60
2022/05/14 01:36:34;;;;;;;29.10;7.45;;;11.70;99.90;;;;;;5094817;28;20036;-60
2022/05/14 01:39:02;;;;;;;26.85;7.43;;;12.60;99.90;;;;;;5094721;28;20036;-60
2022/05/14 01:41:28;;;;;;;25.65;7.32;;;12.70;99.90;;;;;;5093972;28;20158;-60
2022/05/14 01:43:53;;;;;;;24.27;7.30;;;13.70;99.90;;;;;;5093752;28;20123;-60
2022/05/14 01:46:19;;;;;;;33.95;7.80;;;12.40;99.90;;;;;;5093600;28;20044;-60
2022/05/14 01:48:46;;;;;;;28.92;7.50;;;11.50;99.90;;;;;;5093548;28;20039;-60
2022/05/14 01:51:13;;;;;;;26.90;7.80;;;11.60;99.90;;;;;;5092828;28;20039;-60
2022/05/14 01:53:38;;;;;;;38.17;8.13;;;11.70;99.90;;;;;;5093074;28;20507;-62
2022/05/14 01:56:05;;;;;;;34.85;8.63;;;12.60;99.90;;;;;;5093873;28;20051;-59
2022/05/14 01:58:36;;;;;;;28.42;6.80;;;11.40;99.90;;;;;;5091866;28;20096;-60
2022/05/14 02:01:13;;;;;;;30.08;7.50;;;12.80;99.90;;;;;;5093244;28;20039;-60
2022/05/14 02:03:41;;;;;;;33.63;8.48;;;11.40;99.90;;;;;;5093986;28;20059;-60
2022/05/14 02:06:09;;;;;;;41.08;8.85;;;12.60;99.90;;;;;;5093199;28;20040;-60
2022/05/14 02:08:35;;;;;;;29.38;8.00;;;11.10;99.90;;;;;;5093475;28;20441;-60
2022/05/14 02:11:01;;;;;;;27.27;8.07;;;11.20;99.90;;;;;;5092436;28;20036;-61
2022/05/14 02:13:29;;;;;;;28.42;7.93;;;11.20;99.90;;;;;;5092572;28;20376;-61
2022/05/14 02:15:55;;;;;;;39.50;8.32;;;11.10;99.90;;;;;;5093190;28;20035;-60
2022/05/14 02:18:21;;;;;;;27.33;7.13;;;11.00;99.90;;;;;;5094172;28;20051;-60
2022/05/14 02:20:47;;;;;;;33.47;9.27;;;12.20;99.90;;;;;;5093196;28;20131;-60
2022/05/14 02:23:13;;;;;;;36.92;8.65;;;10.90;99.90;;;;;;5091231;28;20054;-60
2022/05/14 02:25:40;;;;;;;40.72;9.43;;;11.60;99.90;;;;;;5093593;28;20240;-60
2022/05/14 02:28:06;;;;;;;36.85;9.75;;;10.90;99.90;;;;;;5092569;28;20060;-60
2022/05/14 02:30:31;;;;;;;42.60;9.07;;;10.90;99.90;;;;;;5092941;28;20779;-61
2022/05/14 02:32:57;;;;;;;35.17;8.88;;;10.90;99.90;;;;;;5092261;28;20040;-60
2022/05/14 02:35:23;;;;;;;28.77;8.30;;;12.70;99.90;;;;;;5093724;28;20054;-60
2022/05/14 02:37:49;;;;;;;36.53;9.73;;;10.60;99.90;;;;;;5094369;28;20081;-61
2022/05/14 02:40:16;;;;;;;42.45;9.55;;;10.60;99.90;;;;;;5093315;28;20040;-61
2022/05/14 02:42:42;;;;;;;40.58;9.40;;;12.90;99.90;;;;;;5093125;28;20035;-60
2022/05/14 02:45:09;;;;;;;45.33;10.07;;;12.50;99.90;;;;;;5093354;28;20716;-60
2022/05/14 02:47:36;;;;;;;38.13;11.52;;;10.40;99.90;;;;;;5094193;28;20239;-60
2022/05/14 02:50:03;;;;;;;38.47;9.70;;;12.30;99.90;;;;;;5093002;28;20101;-60
2022/05/14 02:52:29;;;;;;;34.90;9.20;;;9.70;99.90;;;;;;5093000;28;20043;-61
2022/05/14 02:54:55;;;;;;;37.22;10.25;;;11.50;99.90;;;;;;5093216;28;20082;-60
2022/05/14 02:57:20;;;;;;;37.60;10.10;;;10.60;99.90;;;;;;5094223;28;20079;-60
2022/05/14 02:59:46;;;;;;;36.70;9.43;;;11.00;99.90;;;;;;5093313;28;20454;-61
2022/05/14 03:02:12;;;;;;;29.45;8.10;;;10.30;99.90;;;;;;5092814;28;20053;-61
2022/05/14 03:04:40;;;;;;;43.58;10.68;;;11.00;99.90;;;;;;5093686;28;20175;-60
2022/05/14 03:07:07;;;;;;;45.92;9.98;;;11.30;99.90;;;;;;5091695;28;20043;-60
2022/05/14 03:09:36;;;;;;;34.97;10.70;;;10.80;99.90;;;;;;5092170;28;20040;-60
2022/05/14 03:12:02;;;;;;;38.13;10.27;;;11.20;99.90;;;;;;5090712;28;20192;-61
2022/05/14 03:14:28;;;;;;;40.03;11.65;;;10.40;99.90;;;;;;5092684;28;20114;-60
2022/05/14 03:16:54;;;;;;;39.72;11.52;;;10.20;99.90;;;;;;5093935;28;20111;-60
2022/05/14 03:19:20;;;;;;;58.50;10.85;;;10.30;99.90;;;;;;5092129;28;20063;-61
2022/05/14 03:21:46;;;;;;;42.67;10.77;;;10.20;99.90;;;;;;5089475;28;20092;-60
2022/05/14 03:24:12;;;;;;;52.97;10.93;;;11.00;99.90;;;;;;5093010;28;20035;-61
2022/05/14 03:26:39;;;;;;;45.60;11.27;;;10.10;99.90;;;;;;5096160;28;21026;-60
2022/05/14 03:29:05;;;;;;;44.10;12.50;;;10.10;99.90;;;;;;5095801;28;20118;-60
2022/05/14 03:31:33;;;;;;;47.47;12.45;;;11.30;99.90;;;;;;5096175;28;20472;-60
2022/05/14 03:34:00;;;;;;;45.88;12.30;;;10.10;99.90;;;;;;5095921;28;20114;-61
2022/05/14 03:36:25;;;;;;;47.92;12.10;;;11.30;99.90;;;;;;5096275;28;20093;-61
2022/05/14 03:38:53;;;;;;;49.17;12.70;;;10.10;99.90;;;;;;5096710;28;20040;-60
2022/05/14 03:41:20;;;;;;;51.88;13.82;;;10.10;99.90;;;;;;5096184;28;20154;-60
2022/05/14 03:43:46;;;;;;;49.55;12.63;;;9.90;99.90;;;;;;5097068;28;20043;-61
2022/05/14 03:46:15;;;;;;;54.42;13.63;;;9.50;99.90;;;;;;5096191;28;20039;-59
2022/05/14 03:48:41;;;;;;;49.70;13.98;;;10.20;99.90;;;;;;5094997;28;20043;-61
2022/05/14 03:51:07;;;;;;;47.38;13.02;;;10.30;99.90;;;;;;5096390;28;20044;-61
2022/05/14 03:53:34;;;;;;;52.78;14.13;;;10.20;99.90;;;;;;5095234;28;20950;-61
2022/05/14 03:55:59;;;;;;;52.08;15.15;;;10.20;99.90;;;;;;5096805;28;20048;-60
2022/05/14 03:58:25;;;;;;;53.60;14.40;;;12.30;99.90;;;;;;5095060;28;21215;-59
2022/05/14 04:00:54;;;;;;;49.92;15.18;;;10.20;99.90;;;;;;5095645;28;20043;-60
2022/05/14 04:03:20;;;;;;;52.75;13.60;;;11.50;99.90;;;;;;5095323;28;20032;-60
2022/05/14 04:05:48;;;;;;;56.47;14.48;;;10.60;99.90;;;;;;5096130;28;20391;-60
2022/05/14 04:08:13;;;;;;;56.38;15.57;;;10.20;99.90;;;;;;5096302;28;20123;-60
2022/05/14 04:10:39;;;;;;;58.95;14.85;;;12.40;99.90;;;;;;5096275;28;20889;-60
2022/05/14 04:13:07;;;;;;;52.80;13.68;;;10.00;99.90;;;;;;5095846;28;20042;-60
2022/05/14 04:15:33;;;;;;;43.80;12.57;;;10.20;99.90;;;;;;5096353;28;20035;-60
2022/05/14 04:17:58;;;;;;;49.08;15.13;;;10.30;99.90;;;;;;5096614;28;20468;-61
2022/05/14 04:20:24;;;;;;;56.20;15.57;;;10.00;99.90;;;;;;5094608;28;20035;-61
2022/05/14 04:22:50;;;;;;;57.08;12.57;;;10.70;99.90;;;;;;5095846;28;20077;-61
2022/05/14 04:25:17;;;;;;;41.90;13.63;;;10.20;99.90;;;;;;5096787;28;20103;-60
2022/05/14 04:27:44;;;;;;;49.20;12.90;;;10.30;99.90;;;;;;5093576;28;20047;-61
2022/05/14 04:30:13;;;;;;;44.63;12.93;;;10.40;99.90;;;;;;5095685;28;20043;-60
2022/05/14 04:32:39;;;;;;;56.17;12.90;;;10.40;99.90;;;;;;5094902;28;20044;-60
2022/05/14 04:35:05;;;;;;;46.35;11.93;;;10.40;99.90;;;;;;5096335;28;20043;-59
2022/05/14 04:37:32;;;;;;;52.75;12.38;;;10.40;99.90;;;;;;5095192;28;20036;-60
2022/05/14 04:39:59;;;;;;;43.83;12.20;;;10.50;99.90;;;;;;5095219;28;20057;-59
2022/05/14 04:42:25;;;;;;;51.92;12.15;;;10.40;99.90;;;;;;5095445;28;20574;-58
2022/05/14 04:44:51;;;;;;;45.35;12.02;;;10.80;99.90;;;;;;5094316;28;20054;-59
2022/05/14 04:47:18;;;;;;;47.72;12.80;;;11.90;99.90;;;;;;5095531;28;20036;-59
2022/05/14 04:49:46;;;;;;;39.33;11.75;;;10.50;99.90;;;;;;5095222;28;20327;-59
2022/05/14 04:52:12;;;;;;;40.40;11.70;;;10.50;99.90;;;;;;5094437;28;20081;-59
2022/05/14 04:54:40;;;;;;;44.30;12.43;;;10.80;99.90;;;;;;5094453;28;20797;-58
2022/05/14 04:57:06;;;;;;;39.20;11.05;;;12.20;99.90;;;;;;5093456;28;20058;-58
2022/05/14 04:59:33;;;;;;;40.30;11.50;;;11.00;99.90;;;;;;5092953;28;20039;-58
2022/05/14 05:04:45;;;;;;;37.03;11.20;;;11.30;99.90;;;;;;5094267;28;20092;-58
2022/05/14 05:07:11;;;;;;;43.40;11.02;;;12.60;99.90;;;;;;5093976;27;20040;-58
2022/05/14 05:09:37;;;;;;;44.78;10.88;;;12.50;99.90;;;;;;5095190;28;20035;-59
2022/05/14 05:12:06;;;;;;;33.88;9.65;;;11.70;99.90;;;;;;5093656;28;20071;-59
2022/05/14 05:14:32;;;;;;;35.75;9.27;;;11.90;99.90;;;;;;5093692;28;20035;-59
2022/05/14 05:16:58;;;;;;;37.50;9.77;;;11.70;99.90;;;;;;5094605;28;20259;-59
2022/05/14 05:19:25;;;;;;;37.30;9.55;;;11.80;99.90;;;;;;5092936;28;20046;-59
2022/05/14 05:21:51;;;;;;;34.95;9.05;;;11.60;99.90;;;;;;5093270;28;20079;-58
2022/05/14 05:24:17;;;;;;;41.45;8.95;;;12.80;99.90;;;;;;5094434;28;20118;-58
2022/05/14 05:26:43;;;;;;;34.75;9.48;;;11.80;99.90;;;;;;5092947;27;20722;-57
2022/05/14 05:29:09;;;;;;;37.13;9.65;;;11.80;99.90;;;;;;5093295;28;20052;-58
2022/05/14 05:31:35;;;;;;;41.63;10.63;;;12.80;99.90;;;;;;5093433;28;20036;-58
2022/05/14 05:34:02;;;;;;;44.95;9.88;;;12.10;99.90;;;;;;5092654;28;20035;-57
2022/05/14 05:36:29;;;;;;;34.38;8.63;;;12.20;99.90;;;;;;5092277;28;20035;-57
2022/05/14 05:38:55;;;;;;;34.00;8.27;;;12.50;99.90;;;;;;5092337;28;20051;-58
2022/05/14 05:41:21;;;;;;;28.65;8.95;;;12.50;99.90;;;;;;5094671;28;20044;-57
2022/05/14 05:43:47;;;;;;;34.35;9.18;;;13.70;99.90;;;;;;5093096;28;20503;-57
2022/05/14 05:46:14;;;;;;;36.20;9.02;;;13.40;99.90;;;;;;5093951;28;20048;-57
2022/05/14 05:48:41;;;;;;;36.30;8.38;;;13.00;99.90;;;;;;5093658;28;20100;-57
2022/05/14 05:51:08;;;;;;;34.10;8.65;;;13.40;99.90;;;;;;5093927;28;20067;-56
2022/05/14 05:59:04;;;;;;;29.17;6.88;;;13.80;99.90;;;;;;5091171;28;20061;-58
2022/05/14 06:01:30;;;;;;;29.98;7.53;;;15.90;99.90;;;;;;5092826;28;20051;-58
2022/05/14 06:03:56;;;;;;;32.35;7.72;;;14.70;99.90;;;;;;5091032;28;20055;-58
2022/05/14 06:06:23;;;;;;;28.45;6.68;;;13.90;99.90;;;;;;5090905;28;20051;-57
2022/05/14 06:08:49;;;;;;;28.02;6.50;;;14.10;99.90;;;;;;5092563;28;20115;-58
2022/05/14 06:11:16;;;;;;;28.55;5.68;;;14.70;99.90;;;;;;5092078;28;20051;-58
2022/05/14 06:13:44;;;;;;;24.05;5.90;;;15.50;99.90;;;;;;5091361;28;20027;-58
2022/05/14 06:16:12;;;;;;;28.13;5.97;;;15.20;99.90;;;;;;5091233;28;20901;-57
2022/05/14 06:18:42;;;;;;;26.88;6.30;;;15.30;99.90;;;;;;5092247;28;20046;-58
2022/05/14 06:21:10;;;;;;;16.52;4.93;;;15.40;99.90;;;;;;5091586;28;20768;-57
2022/05/14 06:23:36;;;;;;;28.20;6.68;;;15.20;99.90;;;;;;5091795;28;20082;-59
2022/05/14 06:26:02;;;;;;;25.27;6.15;;;15.20;99.90;;;;;;5093056;28;20349;-58
2022/05/14 06:28:29;;;;;;;26.83;5.82;;;16.80;99.90;;;;;;5091699;27;20039;-57
2022/05/14 06:30:56;;;;;;;29.73;6.93;;;15.60;99.90;;;;;;5092474;28;20727;-57
2022/05/14 06:33:22;;;;;;;24.70;5.50;;;16.20;99.90;;;;;;5093094;28;20038;-58
2022/05/14 06:35:48;;;;;;;23.80;5.95;;;16.20;99.90;;;;;;5090180;28;20031;-58
2022/05/14 06:38:14;;;;;;;19.50;4.47;;;16.60;99.90;;;;;;5091208;28;20385;-57
2022/05/14 06:40:40;;;;;;;26.35;5.95;;;18.40;99.90;;;;;;5088240;28;20108;-56
2022/05/14 06:43:07;;;;;;;25.38;5.00;;;17.70;99.90;;;;;;5088677;28;20038;-58
2022/05/14 06:45:33;;;;;;;20.48;5.43;;;16.90;99.90;;;;;;5088839;28;20157;-58
2022/05/14 06:47:59;;;;;;;23.05;4.80;;;17.30;99.90;;;;;;5091828;28;20043;-58
2022/05/14 06:50:31;;;;;;;20.73;4.95;;;17.70;99.90;;;;;;5091041;28;20570;-58
2022/05/14 06:53:00;;;;;;;22.23;5.28;;;18.20;99.90;;;;;;5093032;28;20056;-58
2022/05/14 06:55:32;;;;;;;21.98;5.03;;;19.00;99.90;;;;;;5069982;28;20564;-58
2022/05/14 06:57:58;;;;;;;;;;;19.70;99.90;;;;;;5051071;28;20060;-58
2022/05/14 07:00:23;;;;;;;19.98;4.93;;;19.90;99.90;;;;;;5057385;28;19935;-58
2022/05/14 07:02:50;;;;;;;18.48;4.70;;;20.00;99.90;;;;;;5058394;28;20048;-58
2022/05/14 07:08:02;;;;;;;15.73;4.30;;;21.40;99.90;;;;;;5058185;28;20288;-59
2022/05/14 07:10:28;;;;;;;20.50;4.95;;;22.00;99.90;;;;;;5058563;28;20086;-59
2022/05/14 07:12:55;;;;;;;19.73;5.10;;;22.80;99.90;;;;;;5058735;28;20452;-59
2022/05/14 07:15:21;;;;;;;22.52;5.05;;;23.30;99.90;;;;;;5058900;28;20044;-59
2022/05/14 07:17:47;;;;;;;18.10;4.50;;;23.80;99.90;;;;;;5058251;28;20041;-59
2022/05/14 07:20:12;;;;;;;17.45;5.05;;;24.50;99.90;;;;;;5057893;28;20041;-59
2022/05/14 07:22:40;;;;;;;16.75;4.95;;;24.50;99.90;;;;;;5058433;28;20135;-59
2022/05/14 07:25:06;;;;;;;18.92;5.18;;;24.30;99.90;;;;;;5058757;28;20040;-59
2022/05/14 07:27:32;;;;;;;17.52;5.10;;;25.00;99.90;;;;;;5057043;28;20812;-59
2022/05/14 07:29:57;;;;;;;16.88;4.65;;;25.20;99.90;;;;;;5055857;28;20048;-61
2022/05/14 07:32:23;;;;;;;22.33;4.75;;;25.20;99.50;;;;;;5056009;28;20739;-59
2022/05/14 07:34:49;;;;;;;14.88;4.38;;;25.20;98.90;;;;;;5058012;28;20036;-60
2022/05/14 07:37:38;;;;;;;21.00;5.28;;;25.40;98.40;;;;;;5056669;28;20089;-59
2022/05/14 07:40:10;;;;;;;23.88;12.15;;;25.50;96.70;;;;;;5057097;28;20037;-61
2022/05/14 07:42:43;;;;;;;66.50;27.48;;;25.60;96.50;;;;;;5057585;28;20045;-59
2022/05/14 07:45:12;;;;;;;100.72;40.03;;;25.60;96.30;;;;;;5056580;28;20041;-60
2022/05/14 07:47:39;;;;;;;589.03;315.38;;;25.10;96.80;;;;;;5058325;28;20036;-60
2022/05/14 07:50:05;;;;;;;797.78;389.05;;;24.90;97.10;;;;;;5057673;28;21163;-60
2022/05/14 07:52:31;;;;;;;1401.93;834.63;;;25.00;97.30;;;;;;5057892;28;20521;-60
2022/05/14 07:54:57;;;;;;;1378.80;742.85;;;25.40;97.10;;;;;;5057890;28;20052;-59
2022/05/14 07:57:22;;;;;;;970.25;761.92;;;24.60;96.60;;;;;;5096163;28;20133;-59
2022/05/14 07:59:48;;;;;;;1152.15;761.17;;;24.00;96.60;;;;;;5098135;27;20037;-60
2022/05/14 08:02:34;;;;;;;691.83;625.05;;;23.30;97.10;;;;;;5097418;28;20563;-60
2022/05/14 08:05:05;;;;;;;632.33;574.40;;;22.60;98.00;;;;;;5096576;28;20036;-60
2022/05/14 08:07:32;;;;;;;509.42;469.10;;;22.40;98.70;;;;;;5098309;28;20952;-60
2022/05/14 08:09:59;;;;;;;536.53;488.17;;;22.10;99.00;;;;;;5099402;28;20594;-60
2022/05/14 08:12:25;;;;;;;520.67;473.65;;;22.10;99.60;;;;;;5096177;28;20047;-60
2022/05/14 08:14:54;;;;;;;833.05;745.55;;;21.50;99.90;;;;;;5095745;28;20071;-60
2022/05/14 08:17:19;;;;;;;843.42;689.40;;;21.50;99.90;;;;;;5093020;28;20039;-60
2022/05/14 08:19:45;;;;;;;556.28;509.25;;;21.50;99.90;;;;;;5096230;28;20088;-60
2022/05/14 08:24:55;;;;;;;611.95;559.35;;;21.70;99.90;;;;;;5093148;28;20058;-60
2022/05/14 08:27:21;;;;;;;549.47;504.92;;;22.00;99.90;;;;;;5093153;28;20039;-60
2022/05/14 08:29:48;;;;;;;606.90;555.53;;;22.50;99.90;;;;;;5094316;28;20085;-60
2022/05/14 08:32:18;;;;;;;684.97;617.70;;;22.50;99.90;;;;;;5095371;28;20377;-60
2022/05/14 08:34:48;;;;;;;569.20;521.42;;;22.80;99.90;;;;;;5094792;28;20043;-60
2022/05/14 08:37:14;;;;;;;746.50;672.28;;;22.60;99.90;;;;;;5093728;28;20047;-59
2022/05/14 08:39:40;;;;;;;636.05;575.92;;;22.60;99.90;;;;;;5095171;28;20100;-60
2022/05/14 08:42:09;;;;;;;551.47;503.90;;;22.10;99.90;;;;;;5095822;28;20043;-60
2022/05/14 08:44:38;;;;;;;721.70;650.45;;;21.70;99.90;;;;;;5094121;28;20043;-59
2022/05/14 08:47:07;;;;;;;583.83;528.88;;;21.10;99.90;;;;;;5093466;28;20118;-60
2022/05/14 08:49:41;;;;;;;589.78;535.03;;;20.60;99.90;;;;;;5094678;28;20070;-59
2022/05/14 08:52:14;;;;;;;794.95;715.92;;;20.20;99.90;;;;;;5093635;28;20147;-59
2022/05/14 08:54:40;;;;;;;592.83;536.85;;;20.30;99.90;;;;;;5095051;28;20039;-60
2022/05/14 08:57:29;;;;;;;866.53;780.67;;;22.30;99.90;;;;;;5092224;28;20135;-59
2022/05/14 08:59:58;;;;;;;720.20;652.42;;;19.60;99.90;;;;;;5094566;28;20040;-59
2022/05/14 09:02:41;;;;;;;614.92;554.63;;;19.20;99.90;;;;;;5093202;28;20345;-59
2022/05/14 09:05:09;;;;;;;552.35;504.00;;;19.20;99.90;;;;;;5094636;28;20125;-61
2022/05/14 09:07:37;;;;;;;482.60;444.08;;;20.20;99.90;;;;;;5094358;28;20064;-59
2022/05/14 09:10:08;;;;;;;492.15;454.55;;;21.00;99.90;;;;;;5093390;28;20043;-60
2022/05/14 09:12:37;;;;;;;478.70;441.73;;;20.90;99.90;;;;;;5094084;28;20449;-60
2022/05/14 09:15:11;;;;;;;500.90;461.00;;;21.30;99.90;;;;;;5093444;28;20039;-59
2022/05/14 09:17:37;;;;;;;543.38;499.15;;;21.40;99.90;;;;;;5093424;28;20035;-59
2022/05/14 09:20:04;;;;;;;510.20;469.98;;;23.10;99.90;;;;;;5095533;28;20058;-60
2022/05/14 09:22:40;;;;;;;512.65;473.63;;;20.80;99.90;;;;;;5093629;28;21002;-59
2022/05/14 09:25:20;;;;;;;545.60;502.85;;;20.90;99.90;;;;;;5092695;28;20039;-59
2022/05/14 09:27:51;;;;;;;521.78;479.75;;;20.90;99.90;;;;;;5092928;28;20040;-59
2022/05/14 09:30:46;;;;;;;537.80;492.30;;;20.30;99.90;;;;;;5092988;28;20139;-59
2022/05/14 09:33:28;;;;;;;735.97;509.20;;;20.30;99.90;;;;;;5091950;28;21319;-59
2022/05/14 09:36:00;;;;;;;191.85;115.07;;;19.90;99.90;;;;;;5095418;28;20035;-59
2022/05/14 09:38:27;;;;;;;74.70;50.60;;;21.80;99.90;;;;;;5094726;28;20512;-59
2022/05/14 09:41:06;;;;;;;28.30;13.48;;;19.40;99.90;;;;;;5094221;28;20031;-59
2022/05/14 09:43:35;;;;;;;25.40;13.68;;;19.50;99.90;;;;;;5093700;28;20035;-59
2022/05/14 09:46:10;;;;;;;20.67;4.68;;;19.30;99.90;;;;;;5094187;28;20913;-59
2022/05/14 09:48:48;;;;;;;21.92;5.22;;;19.20;99.90;;;;;;5093549;28;20035;-59
2022/05/14 09:51:45;;;;;;;20.60;5.30;;;19.00;99.90;;;;;;5093712;28;20431;-60
2022/05/14 09:54:28;;;;;;;21.30;5.80;;;19.20;99.90;;;;;;5092161;28;20079;-59
2022/05/14 09:57:07;;;;;;;16.65;4.35;;;19.70;99.90;;;;;;5093341;28;20054;-59
2022/05/14 09:59:36;;;;;;;20.38;5.50;;;20.20;99.90;;;;;;5092975;28;20128;-59
2022/05/14 10:02:14;;;;;;;18.52;4.65;;;20.70;99.90;;;;;;5093356;28;20400;-59
2022/05/14 10:05:10;;;;;;;23.10;5.28;;;20.40;99.90;;;;;;5092853;28;20058;-59
2022/05/14 10:08:08;;;;;;;20.50;4.50;;;20.10;99.90;;;;;;5093725;28;20051;-59
2022/05/14 10:11:02;;;;;;;20.48;5.15;;;19.70;99.90;;;;;;5086565;28;20055;-59
2022/05/14 10:13:27;;;;;;;22.80;4.93;;;19.80;99.90;;;;;;5092645;28;20069;-59
2022/05/14 10:16:30;;;;;;;24.88;5.35;;;20.00;99.90;;;;;;5094449;28;20047;-59
2022/05/14 10:19:01;;;;;;;21.52;5.10;;;20.00;99.90;;;;;;5029990;28;20873;-59
2022/05/14 10:21:41;;;;;;;19.73;4.53;;;20.00;99.90;;;;;;5028652;28;20037;-59
2022/05/14 10:27:21;;;;;;;21.35;5.20;;;20.30;99.90;;;;;;5028728;28;20540;-59
2022/05/14 10:30:22;;;;;;;22.77;5.07;;;20.80;99.90;;;;;;5028362;28;20049;-59
2022/05/14 10:33:07;;;;;;;20.65;4.72;;;20.50;99.90;;;;;;5031774;28;20401;-59
2022/05/14 10:35:38;;;;;;;16.15;5.05;;;20.40;99.90;;;;;;5029108;28;20081;-59
2022/05/14 10:38:19;;;;;;;21.27;5.18;;;20.90;99.90;;;;;;5033388;28;20044;-59
2022/05/14 10:40:53;;;;;;;20.05;5.13;;;20.90;99.90;;;;;;5030458;28;21092;-59
2022/05/14 10:43:34;;;;;;;24.60;5.20;;;21.10;99.90;;;;;;5029707;28;20067;-59
2022/05/14 10:46:06;;;;;;;25.45;5.00;;;20.90;99.90;;;;;;5029685;28;20346;-59
2022/05/14 10:48:55;;;;;;;22.98;5.10;;;20.80;99.90;;;;;;5030795;28;20808;-59
2022/05/14 10:51:30;;;;;;;20.83;4.50;;;21.20;99.90;;;;;;5030319;28;20061;-59
2022/05/14 10:53:58;;;;;;;19.15;5.50;;;20.70;99.90;;;;;;5031460;28;20103;-59
2022/05/14 10:56:28;;;;;;;18.85;4.97;;;21.20;99.90;;;;;;5089213;28;20582;-59
2022/05/14 10:59:01;;;;;;;17.30;4.40;;;21.00;99.90;;;;;;5091794;28;20039;-59
2022/05/14 11:01:35;;;;;;;22.58;4.95;;;22.60;99.90;;;;;;5092215;28;20035;-58
2022/05/14 11:04:26;;;;;;;21.10;5.63;;;20.70;99.90;;;;;;5092399;28;20856;-59
2022/05/14 11:07:26;;;;;;;19.80;5.47;;;20.60;99.90;;;;;;5092325;28;20063;-59
2022/05/14 11:09:52;;;;;;;21.30;5.05;;;20.70;99.90;;;;;;5029064;28;20052;-59
2022/05/14 11:12:18;;;;;;;15.27;4.38;;;20.70;99.90;;;;;;5029839;28;20472;-59
2022/05/14 11:14:46;;;;;;;21.98;5.13;;;21.60;99.90;;;;;;5028877;28;20098;-59
2022/05/14 11:17:28;;;;;;;22.85;5.25;;;20.00;99.90;;;;;;5029740;28;20052;-59
2022/05/14 11:20:09;;;;;;;23.60;4.97;;;20.20;99.90;;;;;;5028507;28;20187;-59
2022/05/14 11:22:37;;;;;;;;;;;19.80;99.90;;;;;;5030014;28;20119;-59
2022/05/14 11:25:19;;;;;;;20.17;4.75;;;19.80;99.90;;;;;;5028989;28;19920;-60
2022/05/14 11:28:05;;;;;;;25.00;4.22;;;19.40;99.90;;;;;;5027892;28;20053;-59
2022/05/14 11:30:39;;;;;;;22.75;4.50;;;19.60;99.90;;;;;;5028122;28;20499;-59
2022/05/14 11:33:25;;;;;;;21.75;4.95;;;19.50;99.90;;;;;;5011774;28;20045;-59
2022/05/14 11:35:56;;;;;;;23.83;4.45;;;19.70;99.90;;;;;;5028485;28;21113;-58
2022/05/14 11:38:25;;;;;;;20.08;4.70;;;20.30;99.90;;;;;;5028310;28;20045;-59
2022/05/14 11:40:58;;;;;;;25.08;5.47;;;20.80;99.90;;;;;;5028197;28;20134;-59
2022/05/14 11:43:29;;;;;;;18.95;4.10;;;21.30;99.90;;;;;;5028774;28;20041;-59
2022/05/14 11:46:09;;;;;;;19.75;4.53;;;21.70;99.90;;;;;;5044795;28;20419;-59
2022/05/14 11:49:01;;;;;;;20.92;4.85;;;21.90;99.90;;;;;;5094897;28;21174;-59
2022/05/14 11:52:12;;;;;;;19.80;4.82;;;22.00;99.90;;;;;;5095908;28;20651;-58
2022/05/14 11:54:42;;;;;;;18.38;4.45;;;22.00;99.90;;;;;;5031736;28;20378;-58
2022/05/14 11:57:19;;;;;;;23.38;5.57;;;22.20;99.90;;;;;;5032350;28;20143;-58
2022/05/14 12:00:08;;;;;;;20.65;4.35;;;22.30;99.90;;;;;;5033706;28;20053;-59
2022/05/14 12:03:15;;;;;;;22.08;5.00;;;21.50;99.90;;;;;;5032422;28;20045;-58
2022/05/14 12:05:50;;;;;;;24.10;5.00;;;21.20;99.90;;;;;;4993558;28;20046;-58
2022/05/14 12:08:41;;;;;;;20.40;5.05;;;21.10;99.90;;;;;;4991952;28;20966;-58
2022/05/14 12:11:32;;;;;;;19.90;4.90;;;20.90;99.90;;;;;;4992463;28;20046;-58
2022/05/14 12:14:18;;;;;;;21.10;5.00;;;21.10;99.90;;;;;;4992807;28;20517;-58
2022/05/14 12:16:46;;;;;;;20.75;5.82;;;21.00;99.90;;;;;;4993353;28;20046;-58
2022/05/14 12:19:30;;;;;;;16.90;5.00;;;21.00;99.90;;;;;;4995491;28;20439;-58
2022/05/14 12:22:01;;;;;;;19.25;5.03;;;20.90;99.90;;;;;;4994543;28;20908;-58
2022/05/14 12:24:39;;;;;;;22.42;5.95;;;20.70;99.90;;;;;;4993315;28;20081;-58
2022/05/14 12:27:19;;;;;;;20.38;5.03;;;20.20;99.90;;;;;;4994060;28;20057;-58
2022/05/14 12:29:55;;;;;;;18.48;4.57;;;20.30;99.90;;;;;;4995873;28;20046;-58
2022/05/14 12:35:22;;;;;;;19.48;4.70;;;20.10;99.90;;;;;;5051577;28;20044;-58
2022/05/14 12:37:52;;;;;;;27.08;5.38;;;20.00;99.90;;;;;;5052026;28;20102;-58
2022/05/14 12:40:30;;;;;;;22.75;4.28;;;20.50;99.90;;;;;;5083156;28;20043;-59
2022/05/14 12:42:57;;;;;;;21.52;6.07;;;20.80;99.90;;;;;;5092886;28;20613;-60
2022/05/14 12:45:35;;;;;;;19.38;5.00;;;20.90;99.90;;;;;;5094775;28;20047;-59
2022/05/14 12:48:02;;;;;;;19.50;4.22;;;20.50;99.90;;;;;;5093812;28;20134;-58
2022/05/14 12:50:32;;;;;;;19.02;5.57;;;20.70;99.90;;;;;;5094674;28;20031;-59
2022/05/14 12:53:13;;;;;;;21.63;4.10;;;20.40;99.90;;;;;;5093786;28;20046;-58
2022/05/14 12:55:44;;;;;;;19.10;5.00;;;20.30;99.90;;;;;;5094055;28;20062;-59
2022/05/14 12:58:13;;;;;;;26.00;5.60;;;20.40;99.90;;;;;;5091427;28;20649;-58
2022/05/14 13:00:40;;;;;;;19.88;5.22;;;20.10;99.90;;;;;;5093231;28;20416;-58
2022/05/14 13:03:25;;;;;;;19.75;3.95;;;20.20;99.90;;;;;;5093233;28;20679;-59
2022/05/14 13:06:16;;;;;;;21.33;4.88;;;20.20;99.90;;;;;;5094599;28;22206;-59
2022/05/14 13:08:55;;;;;;;19.33;5.20;;;19.80;99.90;;;;;;5093658;28;20050;-58
2022/05/14 13:11:27;;;;;;;25.80;5.03;;;19.70;99.90;;;;;;5093195;28;20066;-59
2022/05/14 13:14:16;;;;;;;19.08;4.35;;;19.50;99.90;;;;;;5094362;28;20369;-59